Hauptseite
METAR-TAF:

METAR-TAF

Flughäfen :

Internationaler König-Abd-al-Aziz-Flughafen

Dschidda, Saudi-Arabien

Breite: 21-42N, Länge: 039-11E, Höhe: 15 m

Beobachtung

Neuester Wetterbericht von vor 58 Minuten, um 19:00 UTC
Wind 6 kt aus Nordwest
Temperatur 25°C
Luftfeuchtigkeit 54%
Luftdruck 1015 hPa
Sichtweite 10 km oder mehr
keine Wolken unter 1500 m und keine Kumulonimbus oder Gewitterwolken

METAR: OEJN 071900Z 32006KT CAVOK 25/15 Q1015 NOSIG

Zeit: 22:58 (19:58 UTC)

Prognose

Neuester Wetterbericht von vor 2 Stunden und 58 Minuten, um 17:00 UTC
Gültige Prognose vom 07 um 18 UTC bis 08 um 24 UTC
Wind 10 kt aus Nord
Sichtweite 10 km oder mehr
Leicht bewölkt in der Höhe von 4000 ft

TAF: OEJN 071700Z 0718/0824 35010KT 9999 FEW040

Wetterbeobachtungen und Prognosen von mehr als 4000 Flughäfen (METAR und TAF Bericht).

Die verfügbaren Stationen werden durch gelbe und rote Markierungen auf der Karte dargestellt.

Führen Sie die Maus auf sie, um den Namen der Station zu sehen.

Darauf klicken, um die Beobachtung von Wetterbeobachtungen und Prognosen zu sehen.

Um die Karte zu ändern : klicken Sie auf den grünen Tasten mit einem schwarzen Kreuz Zum Vergrößern, auf den grünen Button mit einem Gedankenstrich zu verkleinern, oder auf die grünen Pfeile für benachbarte Karten.


METAR-TAF: